Time;durP1;ratioP1;P1;durP2;ratioP2;P2;SDS_P1;SDS_P2;PMS_P1;PMS_P2;Temp;Humidity;BMP_temperature;BMP_pressure;BME280_temperature;BME280_humidity;BME280_pressure;Samples;Min_cycle;Max_cycle;Signal;HPM_P1;HPM_P2
2023/06/09 00:02:09;;;;;;;2.95;1.10;;;18.20;58.20;;;;;;4908370;29;20054;-81
2023/06/09 00:04:37;;;;;;;3.33;1.00;;;18.20;58.30;;;;;;4912715;29;20408;-81
2023/06/09 00:07:04;;;;;;;2.60;0.80;;;18.10;59.00;;;;;;4902250;29;20048;-81
2023/06/09 00:09:32;;;;;;;3.40;0.93;;;18.10;58.50;;;;;;4933929;29;20058;-81
2023/06/09 00:11:59;;;;;;;3.60;1.10;;;18.10;58.60;;;;;;4892904;29;20064;-80
2023/06/09 00:14:26;;;;;;;3.78;1.45;;;18.00;58.70;;;;;;4909484;29;20083;-81
2023/06/09 00:16:55;;;;;;;6.78;1.02;;;18.00;58.70;;;;;;4910045;29;20052;-81
2023/06/09 00:19:24;;;;;;;5.00;1.20;;;17.90;58.90;;;;;;4912698;29;20071;-81
2023/06/09 00:21:51;;;;;;;5.55;1.35;;;17.90;59.00;;;;;;4922541;29;20048;-81
2023/06/09 00:24:21;;;;;;;5.45;1.25;;;17.90;59.10;;;;;;4906706;29;20048;-81
2023/06/09 00:26:49;;;;;;;4.65;1.45;;;17.90;59.10;;;;;;4909086;29;20044;-81
2023/06/09 00:29:18;;;;;;;4.70;1.15;;;17.80;59.20;;;;;;4921928;29;20047;-81
2023/06/09 00:31:46;;;;;;;2.92;1.08;;;17.80;59.10;;;;;;4908689;29;20071;-79
2023/06/09 00:34:13;;;;;;;2.53;1.05;;;17.80;59.10;;;;;;4918924;29;20052;-81
2023/06/09 00:36:40;;;;;;;2.75;1.05;;;17.80;59.10;;;;;;4924139;29;20051;-81
2023/06/09 00:39:09;;;;;;;4.55;1.40;;;17.80;59.10;;;;;;4917343;29;20474;-81
2023/06/09 00:41:37;;;;;;;3.80;1.08;;;17.90;59.10;;;;;;4913748;29;20043;-80
2023/06/09 00:44:05;;;;;;;2.90;0.93;;;17.80;59.10;;;;;;4904301;29;20047;-81
2023/06/09 00:46:33;;;;;;;3.30;1.08;;;17.80;59.20;;;;;;4912357;29;20134;-81
2023/06/09 00:49:01;;;;;;;5.22;1.20;;;17.80;59.20;;;;;;4921520;29;20044;-81
2023/06/09 00:51:29;;;;;;;3.35;0.93;;;17.80;59.20;;;;;;4905992;29;20138;-81
2023/06/09 00:53:57;;;;;;;5.38;1.00;;;17.80;59.20;;;;;;4912899;29;20167;-81
2023/06/09 00:56:25;;;;;;;4.05;1.27;;;17.80;59.30;;;;;;4909809;29;20560;-81
2023/06/09 00:58:53;;;;;;;4.70;1.25;;;17.80;59.30;;;;;;4912139;29;20151;-81
2023/06/09 01:01:20;;;;;;;5.00;1.30;;;17.80;59.30;;;;;;4933665;29;20134;-81
2023/06/09 01:03:47;;;;;;;8.00;1.55;;;17.80;59.30;;;;;;4914691;29;20052;-81
2023/06/09 01:06:38;;;;;;;3.53;1.25;;;17.80;59.40;;;;;;4948484;29;20047;-81
2023/06/09 01:09:18;;;;;;;4.03;1.33;;;17.80;59.50;;;;;;4942709;29;20432;-81
2023/06/09 01:12:07;;;;;;;4.85;1.55;;;17.70;59.60;;;;;;4956328;29;20051;-81
2023/06/09 01:15:02;;;;;;;2.05;0.90;;;17.70;59.80;;;;;;4937037;29;20041;-81
2023/06/09 01:17:32;;;;;;;2.67;1.00;;;17.70;59.90;;;;;;4931063;29;20053;-81
2023/06/09 01:20:05;;;;;;;3.85;1.23;;;17.60;60.10;;;;;;4937082;29;20047;-81
2023/06/09 01:22:54;;;;;;;3.80;1.00;;;17.50;60.20;;;;;;4928784;29;20415;-81
2023/06/09 01:25:41;;;;;;;3.75;1.00;;;17.50;60.40;;;;;;4944664;29;20039;-81
2023/06/09 01:28:16;;;;;;;6.38;1.15;;;17.40;60.50;;;;;;4938980;29;20039;-81
2023/06/09 01:30:46;;;;;;;3.55;1.15;;;17.30;60.80;;;;;;4939791;29;20420;-81
2023/06/09 01:33:17;;;;;;;4.82;1.10;;;17.30;60.90;;;;;;4923638;29;20388;-81
2023/06/09 01:35:46;;;;;;;3.43;1.03;;;17.20;61.10;;;;;;4937978;29;20051;-81
2023/06/09 01:38:14;;;;;;;4.63;1.10;;;17.20;61.10;;;;;;4925825;29;20403;-80
2023/06/09 01:40:43;;;;;;;2.97;0.90;;;17.20;61.20;;;;;;4922684;29;20044;-81
2023/06/09 01:43:11;;;;;;;4.85;1.30;;;17.20;61.30;;;;;;4923961;29;20102;-81
2023/06/09 01:45:38;;;;;;;3.67;1.00;;;17.20;61.40;;;;;;4939484;29;20043;-81
2023/06/09 01:48:26;;;;;;;4.85;0.90;;;17.10;61.50;;;;;;4932214;29;20118;-81
2023/06/09 01:51:00;;;;;;;2.20;0.80;;;17.10;61.60;;;;;;4915980;29;20090;-80
2023/06/09 01:53:35;;;;;;;2.58;1.00;;;17.00;61.70;;;;;;4939256;29;20137;-80
2023/06/09 01:56:07;;;;;;;3.38;0.93;;;17.10;61.70;;;;;;4925986;29;20059;-81
2023/06/09 01:58:38;;;;;;;;;;;17.00;61.80;;;;;;4928357;29;20147;-81
2023/06/09 02:01:06;;;;;;;3.28;0.95;;;17.00;62.00;;;;;;4936120;29;19923;-80
2023/06/09 02:03:38;;;;;;;4.03;0.98;;;16.90;62.00;;;;;;4928709;29;20044;-80
2023/06/09 02:06:05;;;;;;;;;;;16.90;62.10;;;;;;4924537;29;20031;-80
2023/06/09 02:08:34;;;;;;;4.18;0.77;;;16.80;62.10;;;;;;4946262;29;19929;-80
2023/06/09 02:11:02;;;;;;;4.35;1.00;;;16.80;62.30;;;;;;4919870;29;20070;-80
2023/06/09 02:13:30;;;;;;;5.10;1.20;;;16.80;62.40;;;;;;4915330;29;20051;-80
2023/06/09 02:15:57;;;;;;;5.30;1.80;;;16.70;62.50;;;;;;4933825;29;20059;-80
2023/06/09 02:18:24;;;;;;;3.80;0.80;;;16.70;62.80;;;;;;4923765;29;20460;-80
2023/06/09 02:20:52;;;;;;;3.10;1.00;;;16.70;62.90;;;;;;4938905;29;20066;-80
2023/06/09 02:23:21;;;;;;;4.18;1.23;;;16.60;62.90;;;;;;4906318;29;20040;-80
2023/06/09 02:25:49;;;;;;;5.13;1.42;;;16.60;63.10;;;;;;4938948;29;20407;-80
2023/06/09 02:28:16;;;;;;;3.58;1.30;;;16.50;63.30;;;;;;4946869;29;20055;-80
2023/06/09 02:30:44;;;;;;;3.25;0.90;;;16.50;63.30;;;;;;4911165;29;20393;-80
2023/06/09 02:33:15;;;;;;;5.40;1.17;;;16.50;63.30;;;;;;4921755;29;20044;-80
2023/06/09 02:35:42;;;;;;;2.67;1.02;;;16.50;63.50;;;;;;4914099;29;20094;-80
2023/06/09 02:38:11;;;;;;;5.97;1.75;;;16.40;63.50;;;;;;4934924;29;20051;-80
2023/06/09 02:40:42;;;;;;;2.78;1.13;;;16.40;63.70;;;;;;4909976;29;20050;-80
2023/06/09 02:43:09;;;;;;;4.35;1.40;;;16.40;63.80;;;;;;4920723;29;20138;-79
2023/06/09 02:45:36;;;;;;;5.45;1.50;;;16.30;64.50;;;;;;4926511;29;20059;-80
2023/06/09 02:48:04;;;;;;;3.25;1.00;;;16.30;64.00;;;;;;4912308;29;20044;-79
2023/06/09 02:50:32;;;;;;;3.53;1.10;;;16.20;64.00;;;;;;4952453;29;20058;-80
2023/06/09 02:53:02;;;;;;;4.53;1.05;;;16.20;64.00;;;;;;4938551;29;20051;-80
2023/06/09 02:55:32;;;;;;;4.50;1.30;;;16.10;64.00;;;;;;4922951;29;20047;-79
2023/06/09 02:58:00;;;;;;;4.00;1.30;;;16.20;64.20;;;;;;4931640;29;20417;-79
2023/06/09 03:00:29;;;;;;;4.70;1.05;;;16.10;64.20;;;;;;4922523;29;20413;-80
2023/06/09 03:03:01;;;;;;;3.78;1.08;;;16.10;64.40;;;;;;4925229;29;20055;-80
2023/06/09 03:05:31;;;;;;;5.28;1.65;;;16.10;64.50;;;;;;4904550;29;20048;-80
2023/06/09 03:07:59;;;;;;;3.92;1.20;;;16.00;64.60;;;;;;4928403;29;20102;-80
2023/06/09 03:10:27;;;;;;;4.70;1.42;;;16.00;64.60;;;;;;4926812;29;20063;-80
2023/06/09 03:12:56;;;;;;;4.25;1.25;;;16.00;64.70;;;;;;4919198;29;20067;-81
2023/06/09 03:15:24;;;;;;;3.83;1.10;;;16.00;64.80;;;;;;4922447;29;20061;-80
2023/06/09 03:17:52;;;;;;;4.90;1.33;;;16.00;64.80;;;;;;4919452;29;20504;-80
2023/06/09 03:20:20;;;;;;;5.07;1.10;;;16.00;64.90;;;;;;4896477;29;20047;-81
2023/06/09 03:22:52;;;;;;;3.83;1.20;;;16.00;64.90;;;;;;4908880;29;20103;-80
2023/06/09 03:25:19;;;;;;;2.83;1.10;;;16.00;65.00;;;;;;4920363;29;20075;-80
2023/06/09 03:27:46;;;;;;;5.18;1.48;;;15.90;64.90;;;;;;4921072;29;20211;-80
2023/06/09 03:30:14;;;;;;;4.78;1.08;;;15.90;64.90;;;;;;4920733;29;20069;-80
2023/06/09 03:32:45;;;;;;;4.40;1.25;;;16.00;65.60;;;;;;4907028;29;20122;-80
2023/06/09 03:35:14;;;;;;;3.72;1.33;;;15.90;65.10;;;;;;4911643;29;20044;-80
2023/06/09 03:37:41;;;;;;;4.45;1.20;;;15.80;65.20;;;;;;4934387;29;20058;-80
2023/06/09 03:40:09;;;;;;;6.03;1.40;;;15.80;65.40;;;;;;4918639;29;20098;-80
2023/06/09 03:42:36;;;;;;;4.38;1.35;;;15.80;66.10;;;;;;4916963;29;20467;-80
2023/06/09 03:45:04;;;;;;;4.82;1.65;;;15.70;65.70;;;;;;4919532;29;20133;-80
2023/06/09 03:47:34;;;;;;;4.40;1.17;;;15.80;65.70;;;;;;4918490;29;20048;-80
2023/06/09 03:50:02;;;;;;;3.67;1.40;;;15.80;65.70;;;;;;4921229;29;20047;-80
2023/06/09 03:52:32;;;;;;;3.47;1.20;;;15.80;65.80;;;;;;4909812;29;20051;-80
2023/06/09 03:55:00;;;;;;;5.05;1.42;;;15.80;66.00;;;;;;4942801;29;20094;-80
2023/06/09 03:57:30;;;;;;;7.40;1.52;;;15.90;65.90;;;;;;4918286;29;20086;-80
2023/06/09 03:59:57;;;;;;;5.95;1.70;;;15.80;65.90;;;;;;4914971;29;20075;-80
2023/06/09 04:02:25;;;;;;;5.57;1.30;;;15.90;65.90;;;;;;4918758;29;20054;-80
2023/06/09 04:04:53;;;;;;;3.80;1.33;;;15.90;65.90;;;;;;4910225;29;20450;-80
2023/06/09 04:07:20;;;;;;;4.57;1.17;;;15.90;65.90;;;;;;4921329;29;20086;-80
2023/06/09 04:09:47;;;;;;;3.15;1.33;;;15.90;65.90;;;;;;4918275;29;20056;-80
2023/06/09 04:12:14;;;;;;;5.68;1.48;;;15.90;65.90;;;;;;4921316;29;20063;-80
2023/06/09 04:14:42;;;;;;;4.25;1.58;;;15.90;66.00;;;;;;4921383;29;20040;-80
2023/06/09 04:17:09;;;;;;;4.05;1.63;;;15.80;66.20;;;;;;4918089;29;20043;-80
2023/06/09 04:19:36;;;;;;;5.75;1.17;;;15.80;66.20;;;;;;4918344;29;20485;-80
2023/06/09 04:22:07;;;;;;;3.45;1.30;;;15.90;66.30;;;;;;4918088;29;20436;-80
2023/06/09 04:24:35;;;;;;;4.03;1.20;;;15.80;66.30;;;;;;4919282;29;20047;-80
2023/06/09 04:27:03;;;;;;;5.07;1.30;;;15.80;66.30;;;;;;4910583;29;20047;-80
2023/06/09 04:29:34;;;;;;;4.30;1.20;;;15.90;66.30;;;;;;4936518;29;20462;-80
2023/06/09 04:32:01;;;;;;;4.28;1.50;;;15.90;66.30;;;;;;4910035;29;20043;-80
2023/06/09 04:34:38;;;;;;;5.82;1.58;;;16.00;66.20;;;;;;4900158;29;20046;-80
2023/06/09 04:37:08;;;;;;;3.10;1.00;;;16.00;66.10;;;;;;4919102;29;20091;-81
2023/06/09 04:39:35;;;;;;;3.13;1.25;;;16.00;66.10;;;;;;4931312;29;20404;-80
2023/06/09 04:42:05;;;;;;;5.53;2.05;;;16.10;66.20;;;;;;4919253;29;20051;-79
2023/06/09 04:44:33;;;;;;;4.78;1.45;;;16.10;66.30;;;;;;4913809;29;20048;-81
2023/06/09 04:47:05;;;;;;;4.72;1.75;;;16.20;66.20;;;;;;4916451;29;20090;-80
2023/06/09 04:49:32;;;;;;;6.13;1.55;;;16.20;66.20;;;;;;4915098;29;20149;-81
2023/06/09 04:51:59;;;;;;;4.97;1.23;;;16.20;66.20;;;;;;4936870;29;20074;-81
2023/06/09 04:54:31;;;;;;;3.60;1.70;;;16.30;66.20;;;;;;4918259;29;20051;-80
2023/06/09 04:57:05;;;;;;;6.35;1.58;;;16.40;66.30;;;;;;4922198;29;20070;-80
2023/06/09 04:59:32;;;;;;;8.27;1.50;;;16.40;66.30;;;;;;4919528;29;20051;-80
2023/06/09 05:02:00;;;;;;;6.15;1.60;;;16.40;66.20;;;;;;4913728;29;20134;-80
2023/06/09 05:04:28;;;;;;;4.25;1.23;;;16.40;66.20;;;;;;4921118;29;20099;-80
2023/06/09 05:06:56;;;;;;;5.32;2.00;;;16.50;66.10;;;;;;4917461;29;20590;-80
2023/06/09 05:09:23;;;;;;;5.03;1.48;;;16.50;66.10;;;;;;4933606;29;20048;-80
2023/06/09 05:11:51;;;;;;;4.10;1.52;;;16.60;66.00;;;;;;4914924;29;20051;-80
2023/06/09 05:14:19;;;;;;;5.47;1.50;;;16.70;66.00;;;;;;4926543;29;20047;-80
2023/06/09 05:16:46;;;;;;;4.85;1.80;;;16.70;65.90;;;;;;4918140;29;20567;-80
2023/06/09 05:19:15;;;;;;;7.15;2.13;;;16.70;65.90;;;;;;4933747;29;20043;-80
2023/06/09 05:21:45;;;;;;;5.60;1.50;;;16.70;66.00;;;;;;4911527;29;20047;-81
2023/06/09 05:24:13;;;;;;;4.35;1.63;;;16.80;66.00;;;;;;4924231;29;20047;-80
2023/06/09 05:26:41;;;;;;;4.80;1.45;;;16.90;65.90;;;;;;4911215;29;20043;-80
2023/06/09 05:29:09;;;;;;;5.55;1.27;;;17.00;65.80;;;;;;4924322;29;20046;-80
2023/06/09 05:31:37;;;;;;;4.65;1.60;;;17.00;65.60;;;;;;4926931;29;20466;-81
2023/06/09 05:34:04;;;;;;;5.72;1.58;;;17.20;65.60;;;;;;4920894;29;20048;-81
2023/06/09 05:36:31;;;;;;;2.97;1.45;;;17.30;65.40;;;;;;4922900;29;20093;-81
2023/06/09 05:39:00;;;;;;;4.30;1.52;;;17.40;65.30;;;;;;4920431;29;20051;-81
2023/06/09 05:41:27;;;;;;;3.88;1.40;;;17.40;65.10;;;;;;4939987;29;20036;-85
2023/06/09 05:43:57;;;;;;;4.30;1.30;;;17.60;65.10;;;;;;4926173;29;20483;-85
2023/06/09 05:46:25;;;;;;;5.97;2.15;;;17.60;64.90;;;;;;4921128;29;20582;-85
2023/06/09 05:48:53;;;;;;;5.07;1.40;;;17.70;64.90;;;;;;4921868;29;20046;-85
2023/06/09 05:51:20;;;;;;;4.57;1.73;;;17.80;64.70;;;;;;4923858;29;20411;-84
2023/06/09 05:53:49;;;;;;;5.38;1.77;;;17.90;64.80;;;;;;4924388;29;20047;-84
2023/06/09 05:56:19;;;;;;;3.55;1.65;;;17.90;64.70;;;;;;4932567;29;20043;-85
2023/06/09 05:58:46;;;;;;;6.47;1.80;;;17.90;64.70;;;;;;4911603;29;20047;-85
2023/06/09 06:01:16;;;;;;;3.95;1.75;;;18.00;64.70;;;;;;4923400;29;20130;-85
2023/06/09 06:03:43;;;;;;;4.68;1.67;;;18.00;64.70;;;;;;4920687;29;20060;-85
2023/06/09 06:06:10;;;;;;;5.53;2.20;;;18.10;64.80;;;;;;4940188;29;20137;-85
2023/06/09 06:08:38;;;;;;;4.55;1.25;;;18.10;64.70;;;;;;4939544;29;20047;-85
2023/06/09 06:11:06;;;;;;;5.80;1.52;;;18.20;64.70;;;;;;4925714;29;20043;-85
2023/06/09 06:13:32;;;;;;;5.75;2.00;;;18.30;64.50;;;;;;4945459;29;20054;-85
2023/06/09 06:16:00;;;;;;;4.65;1.80;;;18.40;64.40;;;;;;4936953;29;20115;-85
2023/06/09 06:18:27;;;;;;;4.53;1.70;;;18.50;64.30;;;;;;4912784;29;20055;-85
2023/06/09 06:20:54;;;;;;;3.85;1.38;;;18.60;64.10;;;;;;4925788;29;20127;-85
2023/06/09 06:23:22;;;;;;;5.50;1.23;;;18.60;64.00;;;;;;4925421;29;20046;-86
2023/06/09 06:25:48;;;;;;;4.72;1.65;;;18.80;63.90;;;;;;4928171;29;20523;-81
2023/06/09 06:28:16;;;;;;;2.63;1.30;;;18.90;63.70;;;;;;4918611;29;20043;-82
2023/06/09 06:30:43;;;;;;;3.03;1.40;;;19.00;63.60;;;;;;4923192;29;20047;-81
2023/06/09 06:33:10;;;;;;;4.20;1.17;;;19.10;63.40;;;;;;4903932;29;20055;-81
2023/06/09 06:35:37;;;;;;;4.00;1.65;;;19.20;63.40;;;;;;4919294;29;20067;-82
2023/06/09 06:38:04;;;;;;;3.67;1.60;;;19.30;63.20;;;;;;4925429;29;20097;-81
2023/06/09 06:40:32;;;;;;;6.45;2.28;;;19.40;63.20;;;;;;4919312;29;20047;-82
2023/06/09 06:42:59;;;;;;;5.53;1.77;;;19.50;63.00;;;;;;4912918;29;20043;-86
2023/06/09 06:45:40;;;;;;;3.88;1.70;;;19.60;62.90;;;;;;4914260;29;20044;-79
2023/06/09 06:48:07;;;;;;;3.85;1.33;;;19.60;62.80;;;;;;4914387;29;20174;-78
2023/06/09 06:50:35;;;;;;;3.70;1.33;;;19.70;62.80;;;;;;4920802;29;20051;-82
2023/06/09 06:53:02;;;;;;;3.22;1.60;;;19.80;62.60;;;;;;4919498;29;20043;-82
2023/06/09 06:55:32;;;;;;;4.53;2.00;;;19.90;62.50;;;;;;4917265;29;20050;-83
2023/06/09 06:58:03;;;;;;;3.60;1.70;;;20.00;62.30;;;;;;4901084;29;20119;-82
2023/06/09 07:00:30;;;;;;;5.32;2.03;;;20.10;62.30;;;;;;4894698;29;20044;-82
2023/06/09 07:02:59;;;;;;;5.35;2.20;;;20.20;62.20;;;;;;4921803;29;20055;-82
2023/06/09 07:05:26;;;;;;;6.20;1.88;;;20.30;62.10;;;;;;4900016;29;20040;-82
2023/06/09 07:07:53;;;;;;;4.60;1.45;;;20.30;61.90;;;;;;4900525;29;20044;-82
2023/06/09 07:10:20;;;;;;;3.90;1.60;;;20.40;61.80;;;;;;4915992;29;20508;-83
2023/06/09 07:12:47;;;;;;;5.85;2.10;;;20.60;61.60;;;;;;4890193;29;20414;-79
2023/06/09 07:15:15;;;;;;;3.85;1.80;;;20.70;61.50;;;;;;4915780;29;20358;-79
2023/06/09 07:17:51;;;;;;;3.90;1.98;;;20.80;61.40;;;;;;4911768;29;20052;-82
2023/06/09 07:20:18;;;;;;;6.95;2.38;;;20.80;61.30;;;;;;4886062;29;20048;-79
2023/06/09 07:22:50;;;;;;;5.13;2.08;;;20.90;61.30;;;;;;4898393;29;20457;-80
2023/06/09 07:25:17;;;;;;;4.13;2.50;;;20.90;61.90;;;;;;4900876;29;20048;-80
2023/06/09 07:27:47;;;;;;;3.58;1.52;;;21.10;61.10;;;;;;4902990;29;20039;-80
2023/06/09 07:30:15;;;;;;;5.65;2.42;;;21.10;61.10;;;;;;4889140;29;20445;-79
2023/06/09 07:32:43;;;;;;;4.65;1.38;;;21.20;61.00;;;;;;4917047;29;20048;-79
2023/06/09 07:35:13;;;;;;;4.75;1.88;;;21.30;60.80;;;;;;4921084;29;20142;-79
2023/06/09 07:37:42;;;;;;;5.35;2.13;;;21.40;60.50;;;;;;4902186;29;20075;-79
2023/06/09 07:40:10;;;;;;;3.72;1.73;;;21.50;60.40;;;;;;4913043;29;20044;-81
2023/06/09 07:42:48;;;;;;;3.45;1.88;;;21.60;60.30;;;;;;4915417;29;20090;-80
2023/06/09 07:45:15;;;;;;;3.15;1.55;;;21.70;60.30;;;;;;4887210;29;20126;-79
2023/06/09 07:47:42;;;;;;;2.88;1.45;;;21.80;60.10;;;;;;4897362;29;20047;-83
2023/06/09 07:50:09;;;;;;;4.07;1.73;;;21.90;60.10;;;;;;4907660;29;20068;-82
2023/06/09 07:52:37;;;;;;;4.30;1.80;;;22.00;59.90;;;;;;4895176;29;20043;-82
2023/06/09 07:55:06;;;;;;;5.20;1.80;;;22.10;59.70;;;;;;4892629;29;20082;-78
2023/06/09 07:57:40;;;;;;;3.95;1.73;;;22.20;59.50;;;;;;4904053;29;20138;-80
2023/06/09 08:00:08;;;;;;;3.90;1.77;;;22.30;59.50;;;;;;4913151;29;20055;-79
2023/06/09 08:02:41;;;;;;;4.30;1.80;;;22.40;59.40;;;;;;4899263;29;20051;-78
2023/06/09 08:05:14;;;;;;;4.63;1.83;;;22.50;59.30;;;;;;4901198;29;20415;-79
2023/06/09 08:07:42;;;;;;;3.38;1.40;;;22.60;59.00;;;;;;4899517;29;20048;-78
2023/06/09 08:10:09;;;;;;;4.13;1.75;;;22.80;58.90;;;;;;4892508;29;20058;-78
2023/06/09 08:12:38;;;;;;;3.33;1.75;;;22.90;58.70;;;;;;4897904;29;20445;-79
2023/06/09 08:15:06;;;;;;;4.00;2.72;;;23.00;58.70;;;;;;4894441;29;20083;-78
2023/06/09 08:17:33;;;;;;;4.40;2.25;;;23.10;58.60;;;;;;4894933;29;20071;-81
2023/06/09 08:20:00;;;;;;;4.85;2.38;;;23.20;58.50;;;;;;4911647;29;20138;-80
2023/06/09 08:22:27;;;;;;;3.83;2.03;;;23.30;58.40;;;;;;4895428;29;20052;-78
2023/06/09 08:24:56;;;;;;;4.63;2.15;;;23.40;58.20;;;;;;4895194;29;20496;-78
2023/06/09 08:27:23;;;;;;;4.40;2.95;;;23.50;58.20;;;;;;4898888;29;20390;-79
2023/06/09 08:29:50;;;;;;;4.50;2.50;;;23.70;58.10;;;;;;4886981;29;20040;-78
2023/06/09 08:32:17;;;;;;;5.35;2.67;;;23.80;57.90;;;;;;4889155;29;20047;-81
2023/06/09 08:34:44;;;;;;;3.78;2.50;;;23.80;57.80;;;;;;4929342;29;20061;-82
2023/06/09 08:37:12;;;;;;;5.15;2.30;;;23.90;57.70;;;;;;4897763;29;20059;-78
2023/06/09 08:39:39;;;;;;;5.60;2.38;;;24.00;57.60;;;;;;4911723;29;20056;-78
2023/06/09 08:42:23;;;;;;;3.30;2.25;;;24.00;57.50;;;;;;4893785;29;20045;-78
2023/06/09 08:44:55;;;;;;;3.80;2.30;;;24.10;57.40;;;;;;4908157;29;20108;-81
2023/06/09 08:47:25;;;;;;;4.47;2.15;;;24.20;57.40;;;;;;4900686;29;20986;-78
2023/06/09 08:49:57;;;;;;;5.45;2.50;;;24.30;57.20;;;;;;4928094;29;20531;-78
2023/06/09 08:52:28;;;;;;;4.65;2.25;;;24.40;57.10;;;;;;4903177;29;20050;-78
2023/06/09 08:54:59;;;;;;;4.82;2.22;;;24.40;57.00;;;;;;4896316;29;20058;-78
2023/06/09 08:57:27;;;;;;;3.92;2.60;;;24.50;56.80;;;;;;4913379;29;20500;-81
2023/06/09 08:59:55;;;;;;;4.63;2.13;;;24.60;56.70;;;;;;4914883;29;20139;-78
2023/06/09 09:02:22;;;;;;;4.03;2.35;;;24.70;56.60;;;;;;4910642;29;20475;-78
2023/06/09 09:04:49;;;;;;;3.92;1.88;;;24.80;56.50;;;;;;4902607;29;20044;-79
2023/06/09 09:07:17;;;;;;;4.47;2.25;;;24.90;56.30;;;;;;4902915;29;20049;-79
2023/06/09 09:09:47;;;;;;;4.45;2.00;;;25.00;56.10;;;;;;4898752;29;20050;-79
2023/06/09 09:12:14;;;;;;;3.33;2.20;;;25.10;56.00;;;;;;4883521;29;20052;-79
2023/06/09 09:14:42;;;;;;;3.95;2.00;;;25.20;56.00;;;;;;4895563;29;20052;-82
2023/06/09 09:17:15;;;;;;;5.10;1.92;;;25.20;55.80;;;;;;4930216;29;20050;-81
2023/06/09 09:19:45;;;;;;;2.63;1.65;;;25.30;55.70;;;;;;4900463;29;20075;-80
2023/06/09 09:22:15;;;;;;;3.78;1.98;;;25.40;55.80;;;;;;4934377;29;20048;-78
2023/06/09 09:24:49;;;;;;;4.35;2.03;;;25.50;55.70;;;;;;4898728;29;20130;-78
2023/06/09 09:27:22;;;;;;;5.95;2.50;;;25.60;55.70;;;;;;4893023;29;20128;-78
2023/06/09 09:29:49;;;;;;;4.07;2.30;;;25.60;55.30;;;;;;4919942;29;20086;-78
2023/06/09 09:32:17;;;;;;;2.90;2.22;;;25.60;55.40;;;;;;4898761;29;20051;-79
2023/06/09 09:34:45;;;;;;;4.43;2.22;;;25.70;55.40;;;;;;4901110;29;20150;-78
2023/06/09 09:37:16;;;;;;;4.85;2.78;;;25.80;55.20;;;;;;4918955;29;20039;-78
2023/06/09 09:39:53;;;;;;;5.28;2.47;;;25.90;55.00;;;;;;4897464;29;20056;-79
2023/06/09 09:42:21;;;;;;;4.18;2.33;;;26.00;54.90;;;;;;4918382;29;20111;-79
2023/06/09 09:44:51;;;;;;;4.85;3.00;;;26.00;54.80;;;;;;4908692;29;20135;-78
2023/06/09 09:47:19;;;;;;;4.00;2.28;;;26.00;54.70;;;;;;4913613;29;20044;-78
2023/06/09 09:50:00;;;;;;;3.65;2.10;;;26.00;54.70;;;;;;4904443;29;20075;-78
2023/06/09 09:52:29;;;;;;;5.13;2.80;;;26.10;54.60;;;;;;4914395;29;20048;-78
2023/06/09 09:55:04;;;;;;;3.80;2.08;;;26.20;54.50;;;;;;4904785;29;20475;-78
2023/06/09 09:57:33;;;;;;;4.30;2.22;;;26.30;54.30;;;;;;4915707;29;20469;-79
2023/06/09 10:00:12;;;;;;;3.65;2.45;;;26.40;54.30;;;;;;4918380;29;20111;-79
2023/06/09 10:02:45;;;;;;;4.43;2.15;;;26.50;54.10;;;;;;4933638;29;20539;-83
2023/06/09 10:05:16;;;;;;;3.85;2.40;;;26.60;53.90;;;;;;4926171;29;20040;-82
2023/06/09 10:07:48;;;;;;;3.65;2.45;;;26.70;53.70;;;;;;4930371;29;20056;-82
2023/06/09 10:10:16;;;;;;;4.50;2.65;;;26.70;53.30;;;;;;4926805;29;20435;-83
2023/06/09 10:12:45;;;;;;;5.10;2.72;;;26.70;53.40;;;;;;4933817;29;20051;-84
2023/06/09 10:15:13;;;;;;;4.30;2.15;;;26.70;53.30;;;;;;4918921;29;20044;-83
2023/06/09 10:17:42;;;;;;;3.08;1.95;;;26.80;53.20;;;;;;4935801;29;20047;-82
2023/06/09 10:20:11;;;;;;;2.45;1.92;;;26.90;53.00;;;;;;4904923;29;20516;-82
2023/06/09 10:22:40;;;;;;;4.07;2.47;;;27.00;52.90;;;;;;4922478;29;20048;-82
2023/06/09 10:25:09;;;;;;;2.85;1.98;;;27.20;52.60;;;;;;4915724;29;20044;-82
2023/06/09 10:27:37;;;;;;;4.80;1.98;;;27.30;52.50;;;;;;4920332;29;20048;-88
2023/06/09 10:30:10;;;;;;;3.08;1.85;;;27.40;52.20;;;;;;4917536;29;20493;-83
2023/06/09 10:32:46;;;;;;;2.45;1.77;;;27.50;52.10;;;;;;4919481;29;20079;-81
2023/06/09 10:35:19;;;;;;;2.83;1.75;;;27.70;51.90;;;;;;4920352;29;20155;-83
2023/06/09 10:37:52;;;;;;;2.45;1.58;;;27.80;51.70;;;;;;4929836;29;20064;-82
2023/06/09 10:40:25;;;;;;;2.60;1.83;;;27.90;51.40;;;;;;4934851;29;20048;-81
2023/06/09 10:43:01;;;;;;;2.30;1.60;;;27.90;51.30;;;;;;4932262;29;20098;-83
2023/06/09 10:45:50;;;;;;;2.22;1.15;;;28.00;50.80;;;;;;4922272;29;20048;-82
2023/06/09 10:48:42;;;;;;;3.35;1.77;;;28.10;50.70;;;;;;4935517;29;20052;-83
2023/06/09 10:51:28;;;;;;;2.95;1.77;;;28.20;50.40;;;;;;4923934;29;20404;-82
2023/06/09 10:54:14;;;;;;;2.38;1.63;;;28.20;50.20;;;;;;4929598;29;20048;-81
2023/06/09 10:56:52;;;;;;;3.17;1.85;;;28.20;50.00;;;;;;4929161;29;20048;-83
2023/06/09 10:59:25;;;;;;;2.92;1.55;;;28.30;50.00;;;;;;4933985;29;20047;-84
2023/06/09 11:02:05;;;;;;;3.15;1.70;;;28.40;49.90;;;;;;4929774;29;20134;-82
2023/06/09 11:04:43;;;;;;;2.38;1.80;;;28.40;49.60;;;;;;4934372;29;20052;-82
2023/06/09 11:07:12;;;;;;;3.20;1.73;;;28.50;49.60;;;;;;4926552;29;20059;-82
2023/06/09 11:09:40;;;;;;;3.60;1.60;;;28.50;49.50;;;;;;4925463;29;20052;-82
2023/06/09 11:12:26;;;;;;;4.18;2.47;;;28.60;49.30;;;;;;4935002;29;20054;-82
2023/06/09 11:14:58;;;;;;;3.75;1.85;;;28.70;48.90;;;;;;4903859;29;20527;-82
2023/06/09 11:17:39;;;;;;;3.33;1.98;;;28.70;48.80;;;;;;4944819;29;20069;-81
2023/06/09 11:20:10;;;;;;;2.47;1.75;;;28.70;48.60;;;;;;4927426;29;20139;-83
2023/06/09 11:22:42;;;;;;;3.15;2.13;;;28.80;48.80;;;;;;4929465;29;20044;-83
2023/06/09 11:25:19;;;;;;;3.88;1.77;;;28.90;48.10;;;;;;4928637;29;20520;-83
2023/06/09 11:28:09;;;;;;;3.55;1.77;;;28.90;48.10;;;;;;4922846;29;20072;-82
2023/06/09 11:31:00;;;;;;;3.35;2.05;;;29.00;48.10;;;;;;4934417;29;20095;-82
2023/06/09 11:33:55;;;;;;;2.85;1.88;;;29.00;47.80;;;;;;4938642;29;20119;-83
2023/06/09 11:36:27;;;;;;;2.90;1.50;;;29.10;47.70;;;;;;4902728;29;20054;-81
2023/06/09 11:39:00;;;;;;;2.90;2.00;;;29.20;47.70;;;;;;4931475;29;20056;-81
2023/06/09 11:41:27;;;;;;;4.38;2.40;;;29.30;47.40;;;;;;4934512;29;20059;-82
2023/06/09 11:43:56;;;;;;;3.60;2.50;;;29.40;46.90;;;;;;4907731;29;20051;-81
2023/06/09 11:46:24;;;;;;;3.33;2.10;;;29.50;46.60;;;;;;4911354;29;20052;-81
2023/06/09 11:48:58;;;;;;;3.53;2.30;;;29.60;46.20;;;;;;4934866;29;20519;-81
2023/06/09 11:51:25;;;;;;;2.72;1.95;;;29.80;46.50;;;;;;4926166;29;20517;-81
2023/06/09 11:53:53;;;;;;;2.60;1.85;;;30.00;45.80;;;;;;4910291;29;20051;-85
2023/06/09 11:56:22;;;;;;;2.70;1.90;;;30.30;45.50;;;;;;4917164;29;20048;-80
2023/06/09 11:58:53;;;;;;;2.78;1.90;;;30.60;45.20;;;;;;4926720;29;20062;-81
2023/06/09 12:01:28;;;;;;;3.88;1.90;;;30.80;44.70;;;;;;4937111;29;20051;-82
2023/06/09 12:03:55;;;;;;;2.80;2.13;;;31.00;44.20;;;;;;4935934;29;20047;-81
2023/06/09 12:06:22;;;;;;;2.92;1.77;;;31.30;44.10;;;;;;4916149;29;20040;-85
2023/06/09 12:08:49;;;;;;;3.90;2.08;;;31.50;43.90;;;;;;4911161;29;20044;-79
2023/06/09 12:11:17;;;;;;;1.77;1.30;;;31.90;43.70;;;;;;4921966;29;20039;-82
2023/06/09 12:13:48;;;;;;;2.50;1.77;;;31.90;43.60;;;;;;4917280;29;20056;-82
2023/06/09 12:16:15;;;;;;;2.55;1.85;;;31.70;43.50;;;;;;4934546;29;20525;-82
2023/06/09 12:18:42;;;;;;;2.80;1.42;;;31.80;43.60;;;;;;4917983;29;20445;-83
2023/06/09 12:21:10;;;;;;;2.70;1.65;;;32.20;43.00;;;;;;4918225;29;20119;-81
2023/06/09 12:23:37;;;;;;;2.83;1.77;;;32.60;42.70;;;;;;4933913;29;20075;-82
2023/06/09 12:26:07;;;;;;;2.75;1.65;;;33.00;42.30;;;;;;4908158;29;20047;-81
2023/06/09 12:28:34;;;;;;;2.80;1.85;;;33.30;41.80;;;;;;4936944;29;20110;-79
2023/06/09 12:31:09;;;;;;;2.47;1.50;;;33.20;41.70;;;;;;4925107;29;20381;-83
2023/06/09 12:33:37;;;;;;;2.20;1.30;;;33.50;41.30;;;;;;4928947;29;20492;-82
2023/06/09 12:36:07;;;;;;;1.90;1.20;;;33.80;41.10;;;;;;4947219;29;20047;-82
2023/06/09 12:38:37;;;;;;;3.55;1.50;;;34.10;40.70;;;;;;4930277;29;20107;-82
2023/06/09 12:41:13;;;;;;;3.90;1.60;;;34.50;40.40;;;;;;4936544;29;20055;-83
2023/06/09 12:43:49;;;;;;;2.75;1.65;;;34.40;40.20;;;;;;4946364;29;20059;-81
2023/06/09 12:46:37;;;;;;;2.58;1.67;;;34.70;40.00;;;;;;4931519;29;20051;-81
2023/06/09 12:49:08;;;;;;;2.20;1.52;;;34.90;39.40;;;;;;4937102;29;20515;-82
2023/06/09 12:51:40;;;;;;;2.63;1.60;;;34.90;39.40;;;;;;4936835;29;20051;-82
2023/06/09 12:54:13;;;;;;;2.33;1.63;;;35.30;39.00;;;;;;4926908;29;20052;-81
2023/06/09 12:56:40;;;;;;;3.33;2.20;;;35.60;38.50;;;;;;4912017;29;20082;-82
2023/06/09 12:59:09;;;;;;;2.30;1.52;;;35.60;38.50;;;;;;4934424;29;20051;-81
2023/06/09 13:01:36;;;;;;;2.40;1.50;;;35.80;38.20;;;;;;4926441;29;20106;-81
2023/06/09 13:04:04;;;;;;;2.78;1.80;;;35.80;38.10;;;;;;4911517;29;20488;-79